Air Resources Laboratory banner image
Air Resources Laboratory web site National Oceanic and Atmospheric Administration (NOAA)

hi metar


PHBK 181356Z AUTO 07003KT 10SM CLR 22/20 A2994 RMK AO2 SLP140 T02220200=
PHHI 181356Z AUTO 30005KT 10SM OVC050 22/19 A2995 RMK AO2 SLP131 T02150190 $=
PHJR 181353Z AUTO 03005KT 10SM OVC060 24/19 A2994 RMK AO2 SLP145 T02440189 TSNO=
PHKO 181353Z AUTO 34008KT 10SM FEW065 26/21 A2988 RMK AO2 SLP119 T02560211 TSNO=
PHLI 181353Z AUTO 04008KT 10SM SCT018 BKN050 24/21 A2996 RMK AO2 SLP142
 T02440211 TSNO=
PHMK 181354Z AUTO 02008KT 9SM -RA FEW041 OVC055 23/22 A2995 RMK AO2 RAB41
 SLP142 P0000 T02330217 TSNO=
PHNG 181348Z AUTO 05007KT 10SM FEW020 BKN025 OVC044 25/22 A2992 RMK AO2 RAE15
 P0000 T02500222 $=
PHNL 181353Z 03003KT 10SM FEW025 25/19 A2993 RMK AO2 SLP133 T02500194=
PHNY 181356Z AUTO 03011KT 10SM FEW046 22/20 A2998 RMK AO2 SLP131 T02170200=
PHOG 181354Z AUTO 02004KT 7SM -RA BKN010 OVC019 25/24 A2993 RMK AO2 RAB50
 SLP140 P0000 T02500239 TSNO=
PHSF 181356Z AUTO 13003KT 10SM CLR 11/10 A3026 RMK AO2 SLP129 WND DATA ESTMD
 T01080103 PWINO $=
PHTO 181353Z AUTO 24005KT 10SM SCT021 BKN026 OVC033 23/22 A2991 RMK AO2
 RAB11E25 SLP128 P0000 T02280217 TSNO=
PMDY 181356Z AUTO 06005KT 10SM FEW015 23/21 A3017 RMK AO2 SLP215 T02280206=